createdAt,value
2022-11-04T00:05:01.382Z,100
2022-11-04T00:10:03.162Z,100
2022-11-04T00:15:04.604Z,100
2022-11-04T00:20:06.149Z,100
2022-11-04T00:25:07.631Z,100
2022-11-04T00:30:09.244Z,100
2022-11-04T00:35:11.155Z,100
2022-11-04T00:40:12.554Z,100
2022-11-04T00:45:14.278Z,100
2022-11-04T00:50:16.199Z,100
2022-11-04T00:55:17.972Z,100
2022-11-04T01:00:20.168Z,100
2022-11-04T01:05:22.288Z,100
2022-11-04T01:10:24.436Z,100
2022-11-04T01:15:26.319Z,100
2022-11-04T01:20:28.363Z,100
2022-11-04T01:25:30.274Z,100
2022-11-04T01:30:32.359Z,100
2022-11-04T01:35:34.335Z,100
2022-11-04T01:40:36.159Z,100
2022-11-04T01:45:38.064Z,100
2022-11-04T01:50:39.961Z,100
2022-11-04T01:55:41.745Z,100
2022-11-04T02:00:43.680Z,100
2022-11-04T02:05:45.960Z,100
2022-11-04T02:10:47.818Z,100
2022-11-04T02:15:49.813Z,100
2022-11-04T02:20:51.829Z,100
2022-11-04T02:25:53.723Z,100
2022-11-04T02:30:55.531Z,100
2022-11-04T02:35:57.620Z,100
2022-11-04T02:40:59.441Z,100
2022-11-04T02:46:01.244Z,100
2022-11-04T02:51:03.466Z,100
2022-11-04T02:56:04.987Z,100
2022-11-04T03:01:06.491Z,100
2022-11-04T03:06:08.500Z,100
2022-11-04T03:11:09.987Z,100
2022-11-04T03:16:11.464Z,100
2022-11-04T03:21:13.614Z,100
2022-11-04T03:26:15.368Z,100
2022-11-04T03:31:17.184Z,100
2022-11-04T03:36:19.268Z,100
2022-11-04T03:41:21.185Z,100
2022-11-04T03:46:22.989Z,100
2022-11-04T03:51:25.094Z,100
2022-11-04T03:56:27.015Z,100
2022-11-04T04:01:29.121Z,100
2022-11-04T04:06:31.287Z,100
2022-11-04T04:11:32.942Z,100
2022-11-04T04:16:34.470Z,100
2022-11-04T04:21:36.270Z,100
2022-11-04T04:26:38.010Z,100
2022-11-04T04:31:40.004Z,100
2022-11-04T04:36:42.068Z,100
2022-11-04T04:41:44.070Z,100
2022-11-04T04:46:45.941Z,100
2022-11-04T04:51:47.908Z,100
2022-11-04T04:56:49.840Z,100
2022-11-04T05:01:51.851Z,100
2022-11-04T05:06:53.912Z,100
2022-11-04T05:11:55.440Z,100
2022-11-04T05:16:57.175Z,100
2022-11-04T05:21:58.811Z,100
2022-11-04T05:27:00.496Z,100
2022-11-04T05:32:01.997Z,100
2022-11-04T05:37:03.724Z,100
2022-11-04T05:42:05.270Z,100
2022-11-04T05:47:06.914Z,100
2022-11-04T05:52:08.952Z,100
2022-11-04T05:57:10.718Z,100
2022-11-04T06:02:12.310Z,100
2022-11-04T06:07:14.130Z,100
2022-11-04T06:12:15.770Z,100
2022-11-04T06:17:17.269Z,100
2022-11-04T06:22:18.939Z,100
2022-11-04T06:27:20.636Z,100
2022-11-04T06:32:22.123Z,100
2022-11-04T06:37:23.902Z,100
2022-11-04T06:42:25.392Z,100
2022-11-04T06:47:26.877Z,100
2022-11-04T06:52:28.514Z,100
2022-11-04T06:57:30.049Z,100
2022-11-04T07:02:31.794Z,100
2022-11-04T07:07:33.867Z,100
2022-11-04T07:12:35.461Z,100
2022-11-04T07:17:37.261Z,100
2022-11-04T07:22:39.210Z,100
2022-11-04T07:27:41.023Z,100
2022-11-04T07:32:43.044Z,100
2022-11-04T07:37:44.870Z,100
2022-11-04T07:42:46.352Z,100
2022-11-04T07:47:47.843Z,100
2022-11-04T07:52:50.367Z,100
2022-11-04T07:57:51.910Z,100
2022-11-04T08:02:53.418Z,100
2022-11-04T08:07:55.557Z,100
2022-11-04T08:12:57.241Z,100
2022-11-04T08:17:58.923Z,100
2022-11-04T08:23:02.967Z,100
2022-11-04T08:28:04.623Z,100
2022-11-04T08:33:06.375Z,100
2022-11-04T08:38:08.482Z,100
2022-11-04T08:43:10.442Z,100
2022-11-04T08:48:12.634Z,100
2022-11-04T08:53:14.881Z,100
2022-11-04T08:58:16.328Z,100
2022-11-04T09:03:18.253Z,100
2022-11-04T09:08:20.005Z,100
2022-11-04T09:13:21.885Z,100
2022-11-04T09:18:23.409Z,100
2022-11-04T09:23:25.006Z,100
2022-11-04T09:28:27.041Z,100
2022-11-04T09:33:28.506Z,100
2022-11-04T09:38:30.628Z,100
2022-11-04T09:43:32.521Z,100
2022-11-04T09:48:34.422Z,100
2022-11-04T09:53:36.891Z,100
2022-11-04T09:58:38.680Z,100
2022-11-04T10:03:40.591Z,100
2022-11-04T10:08:42.711Z,100
2022-11-04T10:13:44.178Z,100
2022-11-04T10:18:45.899Z,100
2022-11-04T10:23:47.856Z,100
2022-11-04T10:28:49.385Z,100
2022-11-04T10:33:51.212Z,100
2022-11-04T10:38:53.429Z,100
2022-11-04T10:43:55.346Z,100
2022-11-04T10:48:57.312Z,100
2022-11-04T10:53:59.585Z,100
2022-11-04T10:59:01.433Z,100
2022-11-04T11:04:03.401Z,100
2022-11-04T11:09:05.198Z,100
2022-11-04T11:14:06.673Z,96.77409
2022-11-04T11:19:08.220Z,100
2022-11-04T11:24:10.026Z,98.43678
2022-11-04T11:29:11.678Z,95.26057
2022-11-04T11:34:13.373Z,91.37054
2022-11-04T11:39:15.236Z,87.10529
2022-11-04T11:44:17.067Z,92.56664
2022-11-04T11:49:18.614Z,89.56026
2022-11-04T11:54:20.858Z,92.42045
2022-11-04T12:10:49.273Z,83.57879
2022-11-04T12:15:52.413Z,84.55666
2022-11-04T12:20:53.894Z,81.84696
2022-11-04T12:25:55.771Z,84.8187
2022-11-04T12:30:57.716Z,81.287
2022-11-04T12:35:59.277Z,77.98181
2022-11-04T12:46:36.740Z,73.10255
2022-11-04T12:51:38.763Z,74.47593
2022-11-04T12:56:41.141Z,76.18442
2022-11-04T13:01:43.135Z,73.96417
2022-11-04T13:06:45.033Z,72.0063
2022-11-04T13:11:47.129Z,74.33685
2022-11-04T13:16:48.889Z,69.25638
2022-11-04T13:21:50.752Z,70.59334
2022-11-04T13:26:52.966Z,69.87662
2022-11-04T13:31:55.078Z,67.37317
2022-11-04T13:36:56.874Z,70.90142
2022-11-04T13:41:59.213Z,71.74647
2022-11-04T13:47:01.137Z,65.5697
2022-11-04T13:52:03.126Z,67.26602
2022-11-04T13:57:05.412Z,67.45868
2022-11-04T14:02:07.148Z,68.67606
2022-11-04T14:07:08.848Z,65.80446
2022-11-04T14:12:10.809Z,66.27904
2022-11-04T14:17:12.306Z,65.92207
2022-11-04T14:22:13.784Z,66.1016
2022-11-04T14:27:15.538Z,66.12
2022-11-04T14:32:17.235Z,65.774
2022-11-04T14:37:19.115Z,64.78219
2022-11-04T14:42:21.123Z,63.75887
2022-11-04T14:47:22.913Z,64.44499
2022-11-04T14:52:24.751Z,65.16217
2022-11-04T14:57:26.968Z,67.58541
2022-11-04T15:02:28.883Z,66.40869
2022-11-04T15:07:30.756Z,68.25931
2022-11-04T15:12:32.731Z,70.08443
2022-11-04T15:17:34.285Z,71.91921
2022-11-04T15:22:36.124Z,71.97058
2022-11-04T15:27:37.927Z,71.31078
2022-11-04T15:32:39.618Z,74.55096
2022-11-04T15:37:41.410Z,73.70005
2022-11-04T15:42:43.200Z,72.23795
2022-11-04T15:47:44.776Z,72.80242
2022-11-04T15:52:46.474Z,72.85826
2022-11-04T15:57:48.138Z,73.20115
2022-11-04T16:02:49.836Z,69.43797
2022-11-04T16:07:51.418Z,67.42292
2022-11-04T16:12:53.135Z,67.75869
2022-11-04T16:17:54.597Z,65.95028
2022-11-04T16:22:56.198Z,66.88096
2022-11-04T16:27:59.565Z,65.63913
2022-11-04T16:33:02.281Z,67.69994
2022-11-04T16:38:03.831Z,67.58645
2022-11-04T16:43:06.124Z,70.19095
2022-11-04T16:48:07.617Z,71.46852
2022-11-04T16:53:09.432Z,72.15481
2022-11-04T16:58:11.552Z,72.19132
2022-11-04T17:03:13.421Z,72.35156
2022-11-04T17:08:15.185Z,72.53508
2022-11-04T17:13:17.111Z,74.47486
2022-11-04T17:18:18.737Z,72.50012
2022-11-04T17:23:20.194Z,75.89286
2022-11-04T17:28:21.875Z,74.88785
2022-11-04T17:33:23.387Z,78.64098
2022-11-04T17:38:24.957Z,79.98504
2022-11-04T17:43:26.780Z,80.25685
2022-11-04T17:48:28.396Z,83.1166
2022-11-04T17:53:29.977Z,82.39077
2022-11-04T17:58:32.447Z,81.67197
2022-11-04T18:03:34.421Z,80.65997
2022-11-04T18:08:36.343Z,81.13087
2022-11-04T18:13:38.652Z,84.58912
2022-11-04T18:18:40.600Z,84.30482
2022-11-04T18:23:42.391Z,84.21127
2022-11-04T18:28:44.200Z,83.38518
2022-11-04T18:33:45.924Z,85.99281
2022-11-04T18:38:47.729Z,84.00246
2022-11-04T18:43:50.002Z,83.29263
2022-11-04T18:48:51.668Z,82.92795
2022-11-04T18:53:53.574Z,84.58932
2022-11-04T18:58:55.742Z,85.11809
2022-11-04T19:03:57.505Z,84.19743
2022-11-04T19:08:59.666Z,84.48294
2022-11-04T19:14:09.227Z,85.37714
2022-11-04T19:19:11.078Z,85.83298
2022-11-04T19:24:12.556Z,85.61219
2022-11-04T19:29:14.047Z,87.80708
2022-11-04T19:34:15.613Z,86.94885
2022-11-04T19:39:17.099Z,89.04775
2022-11-04T19:44:19.250Z,92.4717
2022-11-04T19:49:20.978Z,92.87626
2022-11-04T19:54:23.161Z,91.07774
2022-11-04T19:59:24.865Z,91.22325
2022-11-04T20:04:26.807Z,90.39004
2022-11-04T20:09:28.833Z,92.50988
2022-11-04T20:14:30.857Z,91.48565
2022-11-04T20:19:32.904Z,93.09876
2022-11-04T20:24:35.051Z,94.63998
2022-11-04T20:29:36.927Z,94.90199
2022-11-04T20:34:38.915Z,93.65158
2022-11-04T20:39:41.097Z,93.92783
2022-11-04T20:44:43.696Z,94.03596
2022-11-04T20:49:45.586Z,92.2637
2022-11-04T20:54:47.329Z,92.05008
2022-11-04T20:59:50.124Z,95.56268
2022-11-04T21:04:51.936Z,91.19975
2022-11-04T21:09:54.037Z,92.58287
2022-11-04T21:14:56.146Z,94.347
2022-11-04T21:19:58.120Z,93.83567
2022-11-04T21:25:00.269Z,94.5476
2022-11-04T21:30:02.239Z,93.66748
2022-11-04T21:35:04.333Z,92.18562
2022-11-04T21:40:06.320Z,94.7114
2022-11-04T21:45:08.704Z,95.04424
2022-11-04T21:50:15.152Z,94.5292
2022-11-04T21:55:19.309Z,92.34197
2022-11-04T22:00:21.220Z,92.78236
2022-11-04T22:05:22.739Z,94.3105
2022-11-04T22:10:24.696Z,92.67167
2022-11-04T22:15:26.746Z,96.34134
2022-11-04T22:20:28.280Z,98.14118
2022-11-04T22:25:29.760Z,98.94465
2022-11-04T22:30:31.555Z,97.52685
2022-11-04T22:35:33.585Z,96.12329
2022-11-04T22:40:35.619Z,91.78807
2022-11-04T22:45:38.694Z,92.07598
2022-11-04T22:50:40.505Z,88.91454
2022-11-04T22:55:42.177Z,87.88888
2022-11-04T23:00:44.194Z,87.60871
2022-11-04T23:05:46.034Z,85.14435
2022-11-04T23:10:47.712Z,85.05003
2022-11-04T23:15:49.784Z,87.43656
2022-11-04T23:20:51.389Z,89.17548
2022-11-04T23:25:52.921Z,92.75203
2022-11-04T23:30:54.525Z,94.98012
2022-11-04T23:35:56.797Z,95.18055
2022-11-04T23:40:58.973Z,95.47645
2022-11-04T23:46:00.964Z,98.75644
2022-11-04T23:51:02.919Z,100
2022-11-04T23:56:04.756Z,100
